sensor_id;sensor_type;location;lat;lon;timestamp;P1;durP1;ratioP1;P2;durP2;ratioP2
22320;SDS011;11328;53.928;18.522;2023-06-19T00:00:51;51.38;;;16.52;;
22320;SDS011;11328;53.928;18.522;2023-06-19T00:03:18;65.97;;;17.17;;
22320;SDS011;11328;53.928;18.522;2023-06-19T00:05:45;87.47;;;16.17;;
22320;SDS011;11328;53.928;18.522;2023-06-19T00:08:12;72.95;;;15.70;;
22320;SDS011;11328;53.928;18.522;2023-06-19T00:10:39;64.85;;;15.13;;
22320;SDS011;11328;53.928;18.522;2023-06-19T00:13:06;57.33;;;16.70;;
22320;SDS011;11328;53.928;18.522;2023-06-19T00:15:32;66.75;;;16.73;;
22320;SDS011;11328;53.928;18.522;2023-06-19T00:17:59;102.20;;;18.55;;
22320;SDS011;11328;53.928;18.522;2023-06-19T00:20:26;21.55;;;15.25;;
22320;SDS011;11328;53.928;18.522;2023-06-19T00:22:53;112.82;;;16.63;;
22320;SDS011;11328;53.928;18.522;2023-06-19T00:25:20;221.60;;;18.63;;
22320;SDS011;11328;53.928;18.522;2023-06-19T00:27:47;116.47;;;16.98;;
22320;SDS011;11328;53.928;18.522;2023-06-19T00:30:14;98.53;;;18.00;;
22320;SDS011;11328;53.928;18.522;2023-06-19T00:32:41;60.63;;;18.17;;
22320;SDS011;11328;53.928;18.522;2023-06-19T00:35:16;28.20;;;17.70;;
22320;SDS011;11328;53.928;18.522;2023-06-19T00:37:48;34.97;;;18.03;;
22320;SDS011;11328;53.928;18.522;2023-06-19T00:40:21;27.15;;;17.10;;
22320;SDS011;11328;53.928;18.522;2023-06-19T00:42:55;19.50;;;16.50;;
22320;SDS011;11328;53.928;18.522;2023-06-19T00:45:23;20.27;;;16.33;;
22320;SDS011;11328;53.928;18.522;2023-06-19T00:47:52;34.88;;;15.82;;
22320;SDS011;11328;53.928;18.522;2023-06-19T00:50:21;21.20;;;14.77;;
22320;SDS011;11328;53.928;18.522;2023-06-19T00:52:49;21.05;;;14.27;;
22320;SDS011;11328;53.928;18.522;2023-06-19T00:55:17;26.38;;;14.68;;
22320;SDS011;11328;53.928;18.522;2023-06-19T00:57:44;20.02;;;14.30;;
22320;SDS011;11328;53.928;18.522;2023-06-19T01:00:12;18.05;;;12.90;;
22320;SDS011;11328;53.928;18.522;2023-06-19T01:02:40;29.27;;;14.85;;
22320;SDS011;11328;53.928;18.522;2023-06-19T01:05:07;24.67;;;14.68;;
22320;SDS011;11328;53.928;18.522;2023-06-19T01:07:39;20.77;;;14.88;;
22320;SDS011;11328;53.928;18.522;2023-06-19T01:10:15;31.73;;;14.30;;
22320;SDS011;11328;53.928;18.522;2023-06-19T01:12:52;25.55;;;15.93;;
22320;SDS011;11328;53.928;18.522;2023-06-19T01:15:35;43.45;;;15.35;;
22320;SDS011;11328;53.928;18.522;2023-06-19T01:18:04;71.68;;;16.05;;
22320;SDS011;11328;53.928;18.522;2023-06-19T01:20:31;43.75;;;16.17;;
22320;SDS011;11328;53.928;18.522;2023-06-19T01:23:08;23.08;;;15.65;;
22320;SDS011;11328;53.928;18.522;2023-06-19T01:25:37;20.42;;;15.27;;
22320;SDS011;11328;53.928;18.522;2023-06-19T01:28:06;20.10;;;15.98;;
22320;SDS011;11328;53.928;18.522;2023-06-19T01:30:39;19.20;;;15.30;;
22320;SDS011;11328;53.928;18.522;2023-06-19T01:33:15;22.80;;;15.00;;
22320;SDS011;11328;53.928;18.522;2023-06-19T01:35:52;26.00;;;15.85;;
22320;SDS011;11328;53.928;18.522;2023-06-19T01:38:20;23.40;;;15.15;;
22320;SDS011;11328;53.928;18.522;2023-06-19T01:40:52;20.42;;;14.85;;
22320;SDS011;11328;53.928;18.522;2023-06-19T01:43:21;22.10;;;14.02;;
22320;SDS011;11328;53.928;18.522;2023-06-19T01:45:50;31.92;;;15.13;;
22320;SDS011;11328;53.928;18.522;2023-06-19T01:48:18;19.95;;;14.65;;
22320;SDS011;11328;53.928;18.522;2023-06-19T01:50:47;20.13;;;14.77;;
22320;SDS011;11328;53.928;18.522;2023-06-19T01:53:14;25.75;;;14.65;;
22320;SDS011;11328;53.928;18.522;2023-06-19T01:55:42;36.92;;;15.23;;
22320;SDS011;11328;53.928;18.522;2023-06-19T01:58:09;19.85;;;14.25;;
22320;SDS011;11328;53.928;18.522;2023-06-19T02:00:36;21.17;;;14.45;;
22320;SDS011;11328;53.928;18.522;2023-06-19T02:03:04;21.30;;;13.95;;
22320;SDS011;11328;53.928;18.522;2023-06-19T02:05:31;16.33;;;13.75;;
22320;SDS011;11328;53.928;18.522;2023-06-19T02:07:58;27.98;;;16.50;;
22320;SDS011;11328;53.928;18.522;2023-06-19T02:10:25;21.13;;;15.52;;
22320;SDS011;11328;53.928;18.522;2023-06-19T02:12:52;67.07;;;15.00;;
22320;SDS011;11328;53.928;18.522;2023-06-19T02:15:19;17.92;;;15.07;;
22320;SDS011;11328;53.928;18.522;2023-06-19T02:17:46;23.80;;;15.52;;
22320;SDS011;11328;53.928;18.522;2023-06-19T02:20:13;16.73;;;13.80;;
22320;SDS011;11328;53.928;18.522;2023-06-19T02:22:40;20.65;;;14.93;;
22320;SDS011;11328;53.928;18.522;2023-06-19T02:25:08;17.67;;;14.13;;
22320;SDS011;11328;53.928;18.522;2023-06-19T02:27:35;17.27;;;13.02;;
22320;SDS011;11328;53.928;18.522;2023-06-19T02:30:01;15.88;;;12.88;;
22320;SDS011;11328;53.928;18.522;2023-06-19T02:32:29;17.95;;;13.63;;
22320;SDS011;11328;53.928;18.522;2023-06-19T02:34:57;19.75;;;13.32;;
22320;SDS011;11328;53.928;18.522;2023-06-19T02:37:24;21.35;;;14.00;;
22320;SDS011;11328;53.928;18.522;2023-06-19T02:39:51;15.48;;;12.70;;
22320;SDS011;11328;53.928;18.522;2023-06-19T02:42:18;16.02;;;11.80;;
22320;SDS011;11328;53.928;18.522;2023-06-19T02:44:44;15.05;;;11.70;;
22320;SDS011;11328;53.928;18.522;2023-06-19T02:47:11;14.88;;;11.90;;
22320;SDS011;11328;53.928;18.522;2023-06-19T02:49:38;15.63;;;11.85;;
22320;SDS011;11328;53.928;18.522;2023-06-19T02:52:05;14.38;;;11.52;;
22320;SDS011;11328;53.928;18.522;2023-06-19T02:54:33;13.50;;;11.35;;
22320;SDS011;11328;53.928;18.522;2023-06-19T02:57:00;14.35;;;12.05;;
22320;SDS011;11328;53.928;18.522;2023-06-19T02:59:27;13.25;;;10.73;;
22320;SDS011;11328;53.928;18.522;2023-06-19T03:01:54;16.10;;;11.43;;
22320;SDS011;11328;53.928;18.522;2023-06-19T03:04:21;14.15;;;11.18;;
22320;SDS011;11328;53.928;18.522;2023-06-19T03:06:51;14.65;;;11.68;;
22320;SDS011;11328;53.928;18.522;2023-06-19T03:09:18;15.70;;;11.38;;
22320;SDS011;11328;53.928;18.522;2023-06-19T03:11:44;15.90;;;11.48;;
22320;SDS011;11328;53.928;18.522;2023-06-19T03:14:11;15.52;;;11.80;;
22320;SDS011;11328;53.928;18.522;2023-06-19T03:16:38;15.02;;;11.85;;
22320;SDS011;11328;53.928;18.522;2023-06-19T03:19:05;16.75;;;11.82;;
22320;SDS011;11328;53.928;18.522;2023-06-19T03:21:32;18.48;;;11.48;;
22320;SDS011;11328;53.928;18.522;2023-06-19T03:23:59;20.88;;;13.00;;
22320;SDS011;11328;53.928;18.522;2023-06-19T03:26:26;14.40;;;12.38;;
22320;SDS011;11328;53.928;18.522;2023-06-19T03:28:53;15.52;;;12.20;;
22320;SDS011;11328;53.928;18.522;2023-06-19T03:31:20;15.18;;;12.30;;
22320;SDS011;11328;53.928;18.522;2023-06-19T03:33:47;50.17;;;13.07;;
22320;SDS011;11328;53.928;18.522;2023-06-19T03:36:14;33.08;;;13.73;;
22320;SDS011;11328;53.928;18.522;2023-06-19T03:38:40;85.32;;;14.02;;
22320;SDS011;11328;53.928;18.522;2023-06-19T03:41:07;233.80;;;14.73;;
22320;SDS011;11328;53.928;18.522;2023-06-19T03:43:34;92.80;;;13.95;;
22320;SDS011;11328;53.928;18.522;2023-06-19T03:46:01;23.63;;;13.93;;
22320;SDS011;11328;53.928;18.522;2023-06-19T03:48:28;79.00;;;14.43;;
22320;SDS011;11328;53.928;18.522;2023-06-19T03:50:55;34.75;;;14.68;;
22320;SDS011;11328;53.928;18.522;2023-06-19T03:53:22;52.47;;;14.05;;
22320;SDS011;11328;53.928;18.522;2023-06-19T03:55:49;54.67;;;14.23;;
22320;SDS011;11328;53.928;18.522;2023-06-19T03:58:17;68.78;;;13.80;;
22320;SDS011;11328;53.928;18.522;2023-06-19T04:00:44;31.50;;;11.43;;
22320;SDS011;11328;53.928;18.522;2023-06-19T04:03:11;31.67;;;12.68;;
22320;SDS011;11328;53.928;18.522;2023-06-19T04:05:38;48.60;;;12.50;;
22320;SDS011;11328;53.928;18.522;2023-06-19T04:08:07;43.08;;;12.70;;
22320;SDS011;11328;53.928;18.522;2023-06-19T04:10:34;24.75;;;12.85;;
22320;SDS011;11328;53.928;18.522;2023-06-19T04:13:01;47.03;;;12.48;;
22320;SDS011;11328;53.928;18.522;2023-06-19T04:15:28;23.52;;;12.15;;
22320;SDS011;11328;53.928;18.522;2023-06-19T04:17:58;128.85;;;14.35;;
22320;SDS011;11328;53.928;18.522;2023-06-19T04:20:27;17.98;;;12.50;;
22320;SDS011;11328;53.928;18.522;2023-06-19T04:22:54;32.50;;;13.40;;
22320;SDS011;11328;53.928;18.522;2023-06-19T04:25:21;44.03;;;14.05;;
22320;SDS011;11328;53.928;18.522;2023-06-19T04:27:47;23.65;;;14.60;;
22320;SDS011;11328;53.928;18.522;2023-06-19T04:30:14;20.02;;;14.07;;
22320;SDS011;11328;53.928;18.522;2023-06-19T04:32:41;18.70;;;15.23;;
22320;SDS011;11328;53.928;18.522;2023-06-19T04:35:09;33.17;;;14.98;;
22320;SDS011;11328;53.928;18.522;2023-06-19T04:37:36;64.35;;;16.50;;
22320;SDS011;11328;53.928;18.522;2023-06-19T04:40:03;29.63;;;15.27;;
22320;SDS011;11328;53.928;18.522;2023-06-19T04:42:33;97.00;;;15.85;;
22320;SDS011;11328;53.928;18.522;2023-06-19T04:45:00;36.95;;;14.68;;
22320;SDS011;11328;53.928;18.522;2023-06-19T04:47:27;71.32;;;15.88;;
22320;SDS011;11328;53.928;18.522;2023-06-19T04:50:13;153.73;;;18.15;;
22320;SDS011;11328;53.928;18.522;2023-06-19T04:52:42;100.50;;;17.10;;
22320;SDS011;11328;53.928;18.522;2023-06-19T04:55:09;224.43;;;18.40;;
22320;SDS011;11328;53.928;18.522;2023-06-19T04:57:36;77.43;;;18.13;;
22320;SDS011;11328;53.928;18.522;2023-06-19T05:00:04;75.05;;;17.70;;
22320;SDS011;11328;53.928;18.522;2023-06-19T05:02:33;88.80;;;15.82;;
22320;SDS011;11328;53.928;18.522;2023-06-19T05:05:00;59.08;;;15.52;;
22320;SDS011;11328;53.928;18.522;2023-06-19T05:07:29;74.45;;;14.88;;
22320;SDS011;11328;53.928;18.522;2023-06-19T05:09:57;77.15;;;17.13;;
22320;SDS011;11328;53.928;18.522;2023-06-19T05:12:25;29.02;;;14.30;;
22320;SDS011;11328;53.928;18.522;2023-06-19T05:14:52;53.78;;;16.00;;
22320;SDS011;11328;53.928;18.522;2023-06-19T05:17:19;22.35;;;14.52;;
22320;SDS011;11328;53.928;18.522;2023-06-19T05:19:46;15.32;;;13.73;;
22320;SDS011;11328;53.928;18.522;2023-06-19T05:22:14;18.70;;;14.57;;
22320;SDS011;11328;53.928;18.522;2023-06-19T05:24:41;50.33;;;16.30;;
22320;SDS011;11328;53.928;18.522;2023-06-19T05:27:08;43.08;;;16.95;;
22320;SDS011;11328;53.928;18.522;2023-06-19T05:29:35;25.52;;;15.15;;
22320;SDS011;11328;53.928;18.522;2023-06-19T05:32:02;39.67;;;15.98;;
22320;SDS011;11328;53.928;18.522;2023-06-19T05:34:30;24.92;;;16.05;;
22320;SDS011;11328;53.928;18.522;2023-06-19T05:36:57;42.45;;;18.27;;
22320;SDS011;11328;53.928;18.522;2023-06-19T05:39:27;21.88;;;17.38;;
22320;SDS011;11328;53.928;18.522;2023-06-19T05:41:53;51.28;;;20.20;;
22320;SDS011;11328;53.928;18.522;2023-06-19T05:44:20;22.38;;;19.98;;
22320;SDS011;11328;53.928;18.522;2023-06-19T05:46:47;22.95;;;20.48;;
22320;SDS011;11328;53.928;18.522;2023-06-19T05:49:14;75.90;;;22.15;;
22320;SDS011;11328;53.928;18.522;2023-06-19T05:51:41;26.25;;;20.77;;
22320;SDS011;11328;53.928;18.522;2023-06-19T05:54:08;64.57;;;20.85;;
22320;SDS011;11328;53.928;18.522;2023-06-19T05:56:35;57.95;;;22.17;;
22320;SDS011;11328;53.928;18.522;2023-06-19T05:59:02;34.42;;;21.67;;
22320;SDS011;11328;53.928;18.522;2023-06-19T06:01:29;22.85;;;20.42;;
22320;SDS011;11328;53.928;18.522;2023-06-19T06:03:57;25.20;;;22.50;;
22320;SDS011;11328;53.928;18.522;2023-06-19T06:06:28;23.38;;;20.88;;
22320;SDS011;11328;53.928;18.522;2023-06-19T06:08:54;23.55;;;21.05;;
22320;SDS011;11328;53.928;18.522;2023-06-19T06:11:22;21.60;;;19.30;;
22320;SDS011;11328;53.928;18.522;2023-06-19T06:13:49;23.17;;;20.73;;
22320;SDS011;11328;53.928;18.522;2023-06-19T06:16:16;25.02;;;21.15;;
22320;SDS011;11328;53.928;18.522;2023-06-19T06:18:44;24.10;;;21.33;;
22320;SDS011;11328;53.928;18.522;2023-06-19T06:21:11;25.45;;;22.70;;
22320;SDS011;11328;53.928;18.522;2023-06-19T06:23:41;24.50;;;21.90;;
22320;SDS011;11328;53.928;18.522;2023-06-19T06:26:11;24.02;;;19.88;;
22320;SDS011;11328;53.928;18.522;2023-06-19T06:28:38;22.58;;;19.73;;
22320;SDS011;11328;53.928;18.522;2023-06-19T06:31:05;21.17;;;18.98;;
22320;SDS011;11328;53.928;18.522;2023-06-19T06:33:33;20.33;;;18.10;;
22320;SDS011;11328;53.928;18.522;2023-06-19T06:36:00;20.67;;;18.48;;
22320;SDS011;11328;53.928;18.522;2023-06-19T06:38:27;18.95;;;16.92;;
22320;SDS011;11328;53.928;18.522;2023-06-19T06:40:54;19.73;;;17.65;;
22320;SDS011;11328;53.928;18.522;2023-06-19T06:43:21;19.10;;;17.10;;
22320;SDS011;11328;53.928;18.522;2023-06-19T06:45:48;21.75;;;17.45;;
22320;SDS011;11328;53.928;18.522;2023-06-19T06:48:15;18.45;;;16.55;;
22320;SDS011;11328;53.928;18.522;2023-06-19T06:50:43;18.42;;;16.63;;
22320;SDS011;11328;53.928;18.522;2023-06-19T06:53:10;18.35;;;15.40;;
22320;SDS011;11328;53.928;18.522;2023-06-19T06:55:36;19.38;;;15.88;;
22320;SDS011;11328;53.928;18.522;2023-06-19T06:58:03;18.63;;;16.60;;
22320;SDS011;11328;53.928;18.522;2023-06-19T07:00:31;18.10;;;14.73;;
22320;SDS011;11328;53.928;18.522;2023-06-19T07:02:58;14.55;;;13.05;;
22320;SDS011;11328;53.928;18.522;2023-06-19T07:05:25;15.20;;;13.60;;
22320;SDS011;11328;53.928;18.522;2023-06-19T07:07:55;15.50;;;13.90;;
22320;SDS011;11328;53.928;18.522;2023-06-19T07:10:22;16.80;;;13.00;;
22320;SDS011;11328;53.928;18.522;2023-06-19T07:12:50;15.45;;;13.20;;
22320;SDS011;11328;53.928;18.522;2023-06-19T07:15:17;14.88;;;13.23;;
22320;SDS011;11328;53.928;18.522;2023-06-19T07:17:44;14.32;;;12.45;;
22320;SDS011;11328;53.928;18.522;2023-06-19T07:20:12;15.20;;;12.15;;
22320;SDS011;11328;53.928;18.522;2023-06-19T07:22:39;15.63;;;11.88;;
22320;SDS011;11328;53.928;18.522;2023-06-19T07:25:09;12.80;;;11.02;;
22320;SDS011;11328;53.928;18.522;2023-06-19T07:27:38;15.52;;;10.38;;
22320;SDS011;11328;53.928;18.522;2023-06-19T07:30:07;14.93;;;9.93;;
22320;SDS011;11328;53.928;18.522;2023-06-19T07:32:35;13.15;;;9.90;;
22320;SDS011;11328;53.928;18.522;2023-06-19T07:35:02;12.48;;;8.95;;
22320;SDS011;11328;53.928;18.522;2023-06-19T07:37:30;9.85;;;8.27;;
22320;SDS011;11328;53.928;18.522;2023-06-19T07:40:00;9.65;;;7.25;;
22320;SDS011;11328;53.928;18.522;2023-06-19T07:42:28;11.88;;;7.75;;
22320;SDS011;11328;53.928;18.522;2023-06-19T07:44:54;11.00;;;7.53;;
22320;SDS011;11328;53.928;18.522;2023-06-19T07:47:21;10.00;;;6.97;;
22320;SDS011;11328;53.928;18.522;2023-06-19T07:49:48;8.75;;;6.30;;
22320;SDS011;11328;53.928;18.522;2023-06-19T07:52:15;8.43;;;6.22;;
22320;SDS011;11328;53.928;18.522;2023-06-19T07:54:52;10.00;;;6.60;;
22320;SDS011;11328;53.928;18.522;2023-06-19T07:57:22;8.13;;;6.32;;
22320;SDS011;11328;53.928;18.522;2023-06-19T07:59:52;11.57;;;6.22;;
22320;SDS011;11328;53.928;18.522;2023-06-19T08:02:21;7.57;;;5.60;;
22320;SDS011;11328;53.928;18.522;2023-06-19T08:04:48;8.07;;;5.40;;
22320;SDS011;11328;53.928;18.522;2023-06-19T08:07:16;10.82;;;6.00;;
22320;SDS011;11328;53.928;18.522;2023-06-19T08:09:43;9.35;;;5.72;;
22320;SDS011;11328;53.928;18.522;2023-06-19T08:12:25;9.27;;;5.80;;
22320;SDS011;11328;53.928;18.522;2023-06-19T08:14:52;7.93;;;6.00;;
22320;SDS011;11328;53.928;18.522;2023-06-19T08:17:19;10.52;;;6.40;;
22320;SDS011;11328;53.928;18.522;2023-06-19T08:19:46;8.07;;;5.00;;
22320;SDS011;11328;53.928;18.522;2023-06-19T08:22:13;10.38;;;4.78;;
22320;SDS011;11328;53.928;18.522;2023-06-19T08:24:40;6.22;;;4.47;;
22320;SDS011;11328;53.928;18.522;2023-06-19T08:27:08;9.48;;;5.47;;
22320;SDS011;11328;53.928;18.522;2023-06-19T08:29:34;8.15;;;5.57;;
22320;SDS011;11328;53.928;18.522;2023-06-19T08:32:01;8.43;;;5.20;;
22320;SDS011;11328;53.928;18.522;2023-06-19T08:34:29;8.02;;;5.53;;
22320;SDS011;11328;53.928;18.522;2023-06-19T08:36:56;8.10;;;5.10;;
22320;SDS011;11328;53.928;18.522;2023-06-19T08:39:24;9.43;;;5.22;;
22320;SDS011;11328;53.928;18.522;2023-06-19T08:41:53;7.68;;;4.72;;
22320;SDS011;11328;53.928;18.522;2023-06-19T08:44:20;8.40;;;4.70;;
22320;SDS011;11328;53.928;18.522;2023-06-19T08:46:47;5.32;;;3.78;;
22320;SDS011;11328;53.928;18.522;2023-06-19T08:49:14;8.93;;;4.97;;
22320;SDS011;11328;53.928;18.522;2023-06-19T08:51:41;7.68;;;4.88;;
22320;SDS011;11328;53.928;18.522;2023-06-19T08:54:07;7.93;;;4.47;;
22320;SDS011;11328;53.928;18.522;2023-06-19T08:56:35;7.10;;;4.65;;
22320;SDS011;11328;53.928;18.522;2023-06-19T09:01:39;6.78;;;4.75;;
22320;SDS011;11328;53.928;18.522;2023-06-19T09:04:10;8.73;;;4.88;;
22320;SDS011;11328;53.928;18.522;2023-06-19T09:06:46;10.05;;;5.15;;
22320;SDS011;11328;53.928;18.522;2023-06-19T09:09:22;10.88;;;5.45;;
22320;SDS011;11328;53.928;18.522;2023-06-19T09:14:36;10.35;;;6.53;;
22320;SDS011;11328;53.928;18.522;2023-06-19T09:17:18;10.60;;;6.97;;
22320;SDS011;11328;53.928;18.522;2023-06-19T09:19:48;9.80;;;7.10;;
22320;SDS011;11328;53.928;18.522;2023-06-19T09:22:22;11.93;;;8.15;;
22320;SDS011;11328;53.928;18.522;2023-06-19T09:24:51;10.18;;;7.00;;
22320;SDS011;11328;53.928;18.522;2023-06-19T09:27:18;8.90;;;6.50;;
22320;SDS011;11328;53.928;18.522;2023-06-19T09:29:47;9.35;;;6.63;;
22320;SDS011;11328;53.928;18.522;2023-06-19T09:32:20;12.82;;;7.90;;
22320;SDS011;11328;53.928;18.522;2023-06-19T09:34:53;9.52;;;7.03;;
22320;SDS011;11328;53.928;18.522;2023-06-19T09:37:27;12.48;;;6.80;;
22320;SDS011;11328;53.928;18.522;2023-06-19T09:40:00;10.88;;;6.63;;
22320;SDS011;11328;53.928;18.522;2023-06-19T09:42:38;13.98;;;6.80;;
22320;SDS011;11328;53.928;18.522;2023-06-19T09:45:10;11.52;;;7.15;;
22320;SDS011;11328;53.928;18.522;2023-06-19T09:47:42;27.20;;;7.78;;
22320;SDS011;11328;53.928;18.522;2023-06-19T09:50:17;9.73;;;7.10;;
22320;SDS011;11328;53.928;18.522;2023-06-19T09:52:47;12.75;;;7.93;;
22320;SDS011;11328;53.928;18.522;2023-06-19T09:55:18;14.65;;;7.63;;
22320;SDS011;11328;53.928;18.522;2023-06-19T09:57:50;13.15;;;7.25;;
22320;SDS011;11328;53.928;18.522;2023-06-19T10:00:19;9.30;;;7.45;;
22320;SDS011;11328;53.928;18.522;2023-06-19T10:05:29;13.15;;;7.60;;
22320;SDS011;11328;53.928;18.522;2023-06-19T10:07:58;13.65;;;7.07;;
22320;SDS011;11328;53.928;18.522;2023-06-19T10:10:26;10.00;;;7.65;;
22320;SDS011;11328;53.928;18.522;2023-06-19T10:12:59;8.77;;;7.00;;
22320;SDS011;11328;53.928;18.522;2023-06-19T10:15:43;10.50;;;7.32;;
22320;SDS011;11328;53.928;18.522;2023-06-19T10:18:15;10.80;;;7.57;;
22320;SDS011;11328;53.928;18.522;2023-06-19T10:20:43;9.43;;;6.90;;
22320;SDS011;11328;53.928;18.522;2023-06-19T10:23:18;15.07;;;8.00;;
22320;SDS011;11328;53.928;18.522;2023-06-19T10:25:54;11.48;;;7.25;;
22320;SDS011;11328;53.928;18.522;2023-06-19T10:28:24;8.82;;;6.80;;
22320;SDS011;11328;53.928;18.522;2023-06-19T10:31:06;12.07;;;7.30;;
22320;SDS011;11328;53.928;18.522;2023-06-19T10:33:35;10.13;;;6.75;;
22320;SDS011;11328;53.928;18.522;2023-06-19T10:36:13;13.25;;;7.50;;
22320;SDS011;11328;53.928;18.522;2023-06-19T10:38:46;13.00;;;6.95;;
22320;SDS011;11328;53.928;18.522;2023-06-19T10:41:14;10.02;;;6.63;;
22320;SDS011;11328;53.928;18.522;2023-06-19T10:43:59;9.30;;;6.70;;
22320;SDS011;11328;53.928;18.522;2023-06-19T10:46:32;10.25;;;7.00;;
22320;SDS011;11328;53.928;18.522;2023-06-19T10:49:02;9.48;;;7.03;;
22320;SDS011;11328;53.928;18.522;2023-06-19T10:51:35;10.60;;;6.72;;
22320;SDS011;11328;53.928;18.522;2023-06-19T10:54:04;11.13;;;7.68;;
22320;SDS011;11328;53.928;18.522;2023-06-19T10:56:31;9.30;;;6.97;;
22320;SDS011;11328;53.928;18.522;2023-06-19T10:58:59;9.68;;;7.13;;
22320;SDS011;11328;53.928;18.522;2023-06-19T11:01:33;10.15;;;6.88;;
22320;SDS011;11328;53.928;18.522;2023-06-19T11:06:31;9.75;;;6.70;;
22320;SDS011;11328;53.928;18.522;2023-06-19T11:09:01;9.13;;;6.90;;
22320;SDS011;11328;53.928;18.522;2023-06-19T11:11:41;9.10;;;7.00;;
22320;SDS011;11328;53.928;18.522;2023-06-19T11:14:11;10.00;;;6.57;;
22320;SDS011;11328;53.928;18.522;2023-06-19T11:16:41;11.50;;;6.90;;
22320;SDS011;11328;53.928;18.522;2023-06-19T11:19:20;12.40;;;7.35;;
22320;SDS011;11328;53.928;18.522;2023-06-19T11:21:52;9.05;;;6.85;;
22320;SDS011;11328;53.928;18.522;2023-06-19T11:24:19;12.00;;;7.20;;
22320;SDS011;11328;53.928;18.522;2023-06-19T11:26:50;10.00;;;6.95;;
22320;SDS011;11328;53.928;18.522;2023-06-19T11:31:54;8.02;;;6.57;;
22320;SDS011;11328;53.928;18.522;2023-06-19T11:34:51;8.40;;;6.70;;
22320;SDS011;11328;53.928;18.522;2023-06-19T11:37:20;8.50;;;6.68;;
22320;SDS011;11328;53.928;18.522;2023-06-19T11:39:48;10.15;;;7.20;;
22320;SDS011;11328;53.928;18.522;2023-06-19T11:42:18;15.82;;;7.38;;
22320;SDS011;11328;53.928;18.522;2023-06-19T11:45:01;7.72;;;6.30;;
22320;SDS011;11328;53.928;18.522;2023-06-19T11:47:32;10.98;;;6.72;;
22320;SDS011;11328;53.928;18.522;2023-06-19T11:50:00;7.95;;;6.57;;
22320;SDS011;11328;53.928;18.522;2023-06-19T11:52:31;9.10;;;6.72;;
22320;SDS011;11328;53.928;18.522;2023-06-19T11:54:58;8.80;;;6.93;;
22320;SDS011;11328;53.928;18.522;2023-06-19T11:57:26;10.95;;;7.13;;
22320;SDS011;11328;53.928;18.522;2023-06-19T11:59:53;10.38;;;6.40;;
22320;SDS011;11328;53.928;18.522;2023-06-19T12:02:21;8.95;;;6.50;;
22320;SDS011;11328;53.928;18.522;2023-06-19T12:04:49;11.10;;;7.03;;
22320;SDS011;11328;53.928;18.522;2023-06-19T12:07:16;9.80;;;6.25;;
22320;SDS011;11328;53.928;18.522;2023-06-19T12:09:43;9.00;;;6.70;;
22320;SDS011;11328;53.928;18.522;2023-06-19T12:12:10;9.32;;;6.88;;
22320;SDS011;11328;53.928;18.522;2023-06-19T12:14:37;10.00;;;6.90;;
22320;SDS011;11328;53.928;18.522;2023-06-19T12:17:06;8.45;;;6.60;;
22320;SDS011;11328;53.928;18.522;2023-06-19T12:19:33;9.15;;;6.45;;
22320;SDS011;11328;53.928;18.522;2023-06-19T12:22:00;8.95;;;6.70;;
22320;SDS011;11328;53.928;18.522;2023-06-19T12:24:26;8.82;;;6.60;;
22320;SDS011;11328;53.928;18.522;2023-06-19T12:26:53;8.38;;;6.40;;
22320;SDS011;11328;53.928;18.522;2023-06-19T12:29:20;10.27;;;6.38;;
22320;SDS011;11328;53.928;18.522;2023-06-19T12:31:47;9.20;;;6.60;;
22320;SDS011;11328;53.928;18.522;2023-06-19T12:34:14;9.43;;;6.93;;
22320;SDS011;11328;53.928;18.522;2023-06-19T12:36:56;8.43;;;6.57;;
22320;SDS011;11328;53.928;18.522;2023-06-19T12:39:23;10.68;;;6.47;;
22320;SDS011;11328;53.928;18.522;2023-06-19T12:41:51;8.52;;;6.45;;
22320;SDS011;11328;53.928;18.522;2023-06-19T12:44:18;8.48;;;6.32;;
22320;SDS011;11328;53.928;18.522;2023-06-19T12:46:47;9.88;;;6.10;;
22320;SDS011;11328;53.928;18.522;2023-06-19T12:49:15;10.85;;;6.47;;
22320;SDS011;11328;53.928;18.522;2023-06-19T12:51:42;7.93;;;6.32;;
22320;SDS011;11328;53.928;18.522;2023-06-19T12:54:08;9.80;;;6.50;;
22320;SDS011;11328;53.928;18.522;2023-06-19T12:56:35;8.65;;;6.18;;
22320;SDS011;11328;53.928;18.522;2023-06-19T12:59:02;8.80;;;5.97;;
22320;SDS011;11328;53.928;18.522;2023-06-19T13:01:29;10.65;;;6.05;;
22320;SDS011;11328;53.928;18.522;2023-06-19T13:03:56;8.68;;;6.55;;
22320;SDS011;11328;53.928;18.522;2023-06-19T13:06:24;10.68;;;6.35;;
22320;SDS011;11328;53.928;18.522;2023-06-19T13:08:51;8.48;;;6.45;;
22320;SDS011;11328;53.928;18.522;2023-06-19T13:11:19;11.68;;;7.15;;
22320;SDS011;11328;53.928;18.522;2023-06-19T13:13:46;14.10;;;6.90;;
22320;SDS011;11328;53.928;18.522;2023-06-19T13:16:13;14.13;;;6.63;;
22320;SDS011;11328;53.928;18.522;2023-06-19T13:18:42;8.00;;;6.22;;
22320;SDS011;11328;53.928;18.522;2023-06-19T13:21:09;8.18;;;5.97;;
22320;SDS011;11328;53.928;18.522;2023-06-19T13:23:37;9.07;;;6.32;;
22320;SDS011;11328;53.928;18.522;2023-06-19T13:26:05;21.25;;;6.63;;
22320;SDS011;11328;53.928;18.522;2023-06-19T13:28:33;8.77;;;6.07;;
22320;SDS011;11328;53.928;18.522;2023-06-19T13:31:00;12.55;;;6.80;;
22320;SDS011;11328;53.928;18.522;2023-06-19T13:33:27;11.65;;;6.60;;
22320;SDS011;11328;53.928;18.522;2023-06-19T13:35:54;9.32;;;5.78;;
22320;SDS011;11328;53.928;18.522;2023-06-19T13:38:21;12.10;;;6.30;;
22320;SDS011;11328;53.928;18.522;2023-06-19T13:40:49;11.50;;;6.32;;
22320;SDS011;11328;53.928;18.522;2023-06-19T13:43:16;12.07;;;6.25;;
22320;SDS011;11328;53.928;18.522;2023-06-19T13:45:43;11.60;;;5.88;;
22320;SDS011;11328;53.928;18.522;2023-06-19T13:48:10;8.55;;;6.28;;
22320;SDS011;11328;53.928;18.522;2023-06-19T13:50:37;8.60;;;6.28;;
22320;SDS011;11328;53.928;18.522;2023-06-19T13:53:04;9.32;;;6.50;;
22320;SDS011;11328;53.928;18.522;2023-06-19T13:55:31;10.43;;;6.45;;
22320;SDS011;11328;53.928;18.522;2023-06-19T13:57:58;8.48;;;6.68;;
22320;SDS011;11328;53.928;18.522;2023-06-19T14:00:25;8.98;;;6.60;;
22320;SDS011;11328;53.928;18.522;2023-06-19T14:02:52;17.52;;;6.97;;
22320;SDS011;11328;53.928;18.522;2023-06-19T14:05:19;14.77;;;6.72;;
22320;SDS011;11328;53.928;18.522;2023-06-19T14:07:47;8.38;;;6.40;;
22320;SDS011;11328;53.928;18.522;2023-06-19T14:10:14;9.20;;;6.40;;
22320;SDS011;11328;53.928;18.522;2023-06-19T14:12:41;10.95;;;6.10;;
22320;SDS011;11328;53.928;18.522;2023-06-19T14:15:09;8.65;;;6.03;;
22320;SDS011;11328;53.928;18.522;2023-06-19T14:17:36;9.23;;;6.60;;
22320;SDS011;11328;53.928;18.522;2023-06-19T14:20:03;9.30;;;6.57;;
22320;SDS011;11328;53.928;18.522;2023-06-19T14:22:31;9.38;;;6.63;;
22320;SDS011;11328;53.928;18.522;2023-06-19T14:24:58;9.35;;;6.63;;
22320;SDS011;11328;53.928;18.522;2023-06-19T14:27:28;9.98;;;6.70;;
22320;SDS011;11328;53.928;18.522;2023-06-19T14:29:55;10.23;;;6.25;;
22320;SDS011;11328;53.928;18.522;2023-06-19T14:32:23;8.85;;;6.80;;
22320;SDS011;11328;53.928;18.522;2023-06-19T14:34:50;11.35;;;6.43;;
22320;SDS011;11328;53.928;18.522;2023-06-19T14:37:17;9.02;;;6.50;;
22320;SDS011;11328;53.928;18.522;2023-06-19T14:39:44;8.82;;;6.53;;